sensor_id;sensor_type;location;lat;lon;timestamp;P1;durP1;ratioP1;P2;durP2;ratioP2
53650;SDS011;39552;45.776;15.892;2022-12-18T00:02:02;123.80;;;67.93;;
53650;SDS011;39552;45.776;15.892;2022-12-18T00:04:28;117.25;;;66.47;;
53650;SDS011;39552;45.776;15.892;2022-12-18T00:06:55;115.28;;;64.80;;
53650;SDS011;39552;45.776;15.892;2022-12-18T00:09:23;112.88;;;64.25;;
53650;SDS011;39552;45.776;15.892;2022-12-18T00:14:48;115.85;;;64.03;;
53650;SDS011;39552;45.776;15.892;2022-12-18T00:17:26;112.35;;;63.88;;
53650;SDS011;39552;45.776;15.892;2022-12-18T00:20:11;115.90;;;65.43;;
53650;SDS011;39552;45.776;15.892;2022-12-18T00:22:38;119.85;;;65.30;;
53650;SDS011;39552;45.776;15.892;2022-12-18T00:25:12;115.32;;;63.80;;
53650;SDS011;39552;45.776;15.892;2022-12-18T00:27:47;113.45;;;62.95;;
53650;SDS011;39552;45.776;15.892;2022-12-18T00:30:20;114.57;;;63.28;;
53650;SDS011;39552;45.776;15.892;2022-12-18T00:32:51;113.10;;;61.92;;
53650;SDS011;39552;45.776;15.892;2022-12-18T00:35:26;111.10;;;63.03;;
53650;SDS011;39552;45.776;15.892;2022-12-18T00:38:14;111.75;;;61.33;;
53650;SDS011;39552;45.776;15.892;2022-12-18T00:41:09;112.13;;;59.70;;
53650;SDS011;39552;45.776;15.892;2022-12-18T00:43:51;106.38;;;57.17;;
53650;SDS011;39552;45.776;15.892;2022-12-18T00:46:28;105.97;;;59.55;;
53650;SDS011;39552;45.776;15.892;2022-12-18T00:49:10;104.60;;;58.58;;
53650;SDS011;39552;45.776;15.892;2022-12-18T00:51:45;101.95;;;57.80;;
53650;SDS011;39552;45.776;15.892;2022-12-18T00:54:41;106.57;;;60.78;;
53650;SDS011;39552;45.776;15.892;2022-12-18T00:57:30;108.15;;;59.35;;
53650;SDS011;39552;45.776;15.892;2022-12-18T01:00:15;101.40;;;56.28;;
53650;SDS011;39552;45.776;15.892;2022-12-18T01:02:54;104.65;;;56.03;;
53650;SDS011;39552;45.776;15.892;2022-12-18T01:05:31;105.88;;;57.03;;
53650;SDS011;39552;45.776;15.892;2022-12-18T01:08:20;99.70;;;54.03;;
53650;SDS011;39552;45.776;15.892;2022-12-18T01:11:16;89.82;;;52.60;;
53650;SDS011;39552;45.776;15.892;2022-12-18T01:19:48;98.63;;;54.72;;
53650;SDS011;39552;45.776;15.892;2022-12-18T01:22:29;96.78;;;52.58;;
53650;SDS011;39552;45.776;15.892;2022-12-18T01:25:22;94.35;;;51.08;;
53650;SDS011;39552;45.776;15.892;2022-12-18T01:28:03;98.70;;;54.22;;
53650;SDS011;39552;45.776;15.892;2022-12-18T01:37:06;93.45;;;51.45;;
53650;SDS011;39552;45.776;15.892;2022-12-18T01:39:47;99.85;;;53.35;;
53650;SDS011;39552;45.776;15.892;2022-12-18T01:42:30;99.00;;;51.78;;
53650;SDS011;39552;45.776;15.892;2022-12-18T01:45:21;92.72;;;51.55;;
53650;SDS011;39552;45.776;15.892;2022-12-18T01:48:08;95.35;;;52.72;;
53650;SDS011;39552;45.776;15.892;2022-12-18T01:53:37;97.28;;;50.72;;
53650;SDS011;39552;45.776;15.892;2022-12-18T01:56:25;96.63;;;50.97;;
53650;SDS011;39552;45.776;15.892;2022-12-18T01:59:07;90.25;;;50.22;;
53650;SDS011;39552;45.776;15.892;2022-12-18T02:01:42;91.70;;;49.70;;
53650;SDS011;39552;45.776;15.892;2022-12-18T02:04:18;86.13;;;48.50;;
53650;SDS011;39552;45.776;15.892;2022-12-18T02:07:04;91.43;;;47.47;;
53650;SDS011;39552;45.776;15.892;2022-12-18T02:09:47;87.38;;;46.42;;
53650;SDS011;39552;45.776;15.892;2022-12-18T02:12:33;80.95;;;45.80;;
53650;SDS011;39552;45.776;15.892;2022-12-18T02:15:15;79.15;;;44.35;;
53650;SDS011;39552;45.776;15.892;2022-12-18T02:18:20;79.88;;;44.92;;
53650;SDS011;39552;45.776;15.892;2022-12-18T02:21:00;77.03;;;42.28;;
53650;SDS011;39552;45.776;15.892;2022-12-18T02:23:50;74.78;;;41.55;;
53650;SDS011;39552;45.776;15.892;2022-12-18T02:26:53;72.78;;;39.53;;
53650;SDS011;39552;45.776;15.892;2022-12-18T02:29:46;75.07;;;39.70;;
53650;SDS011;39552;45.776;15.892;2022-12-18T02:32:46;70.03;;;37.70;;
53650;SDS011;39552;45.776;15.892;2022-12-18T02:35:27;67.93;;;36.22;;
53650;SDS011;39552;45.776;15.892;2022-12-18T02:38:09;68.65;;;35.97;;
53650;SDS011;39552;45.776;15.892;2022-12-18T02:40:56;72.93;;;37.80;;
53650;SDS011;39552;45.776;15.892;2022-12-18T02:43:56;72.63;;;37.28;;
53650;SDS011;39552;45.776;15.892;2022-12-18T02:46:52;73.40;;;36.40;;
53650;SDS011;39552;45.776;15.892;2022-12-18T02:49:28;69.38;;;36.38;;
53650;SDS011;39552;45.776;15.892;2022-12-18T02:52:10;66.30;;;35.05;;
53650;SDS011;39552;45.776;15.892;2022-12-18T02:55:15;65.60;;;34.05;;
53650;SDS011;39552;45.776;15.892;2022-12-18T02:58:08;61.63;;;33.47;;
53650;SDS011;39552;45.776;15.892;2022-12-18T03:00:56;66.10;;;34.22;;
53650;SDS011;39552;45.776;15.892;2022-12-18T03:03:47;65.18;;;33.75;;
53650;SDS011;39552;45.776;15.892;2022-12-18T03:06:47;71.90;;;34.15;;
53650;SDS011;39552;45.776;15.892;2022-12-18T03:09:29;67.97;;;33.88;;
53650;SDS011;39552;45.776;15.892;2022-12-18T03:12:09;62.75;;;33.10;;
53650;SDS011;39552;45.776;15.892;2022-12-18T03:14:43;64.80;;;32.95;;
53650;SDS011;39552;45.776;15.892;2022-12-18T03:17:38;67.50;;;34.42;;
53650;SDS011;39552;45.776;15.892;2022-12-18T03:20:21;65.05;;;33.97;;
53650;SDS011;39552;45.776;15.892;2022-12-18T03:23:04;60.92;;;31.52;;
53650;SDS011;39552;45.776;15.892;2022-12-18T03:25:46;62.63;;;32.45;;
53650;SDS011;39552;45.776;15.892;2022-12-18T03:28:44;68.75;;;33.38;;
53650;SDS011;39552;45.776;15.892;2022-12-18T03:31:35;62.00;;;33.00;;
53650;SDS011;39552;45.776;15.892;2022-12-18T03:34:26;60.20;;;32.17;;
53650;SDS011;39552;45.776;15.892;2022-12-18T03:37:10;62.80;;;31.95;;
53650;SDS011;39552;45.776;15.892;2022-12-18T03:40:06;65.75;;;34.03;;
53650;SDS011;39552;45.776;15.892;2022-12-18T03:42:52;63.60;;;33.17;;
53650;SDS011;39552;45.776;15.892;2022-12-18T03:45:41;64.47;;;32.90;;
53650;SDS011;39552;45.776;15.892;2022-12-18T03:48:27;68.53;;;34.33;;
53650;SDS011;39552;45.776;15.892;2022-12-18T03:51:14;61.05;;;32.35;;
53650;SDS011;39552;45.776;15.892;2022-12-18T03:53:55;69.38;;;34.10;;
53650;SDS011;39552;45.776;15.892;2022-12-18T03:56:49;62.42;;;32.78;;
53650;SDS011;39552;45.776;15.892;2022-12-18T03:59:30;67.55;;;34.08;;
53650;SDS011;39552;45.776;15.892;2022-12-18T04:02:16;65.88;;;33.78;;
53650;SDS011;39552;45.776;15.892;2022-12-18T04:05:04;68.88;;;31.58;;
53650;SDS011;39552;45.776;15.892;2022-12-18T04:07:38;67.18;;;34.45;;
53650;SDS011;39552;45.776;15.892;2022-12-18T04:10:30;66.55;;;32.95;;
53650;SDS011;39552;45.776;15.892;2022-12-18T04:13:23;65.72;;;33.55;;
53650;SDS011;39552;45.776;15.892;2022-12-18T04:16:10;66.10;;;33.78;;
53650;SDS011;39552;45.776;15.892;2022-12-18T04:18:49;72.53;;;36.00;;
53650;SDS011;39552;45.776;15.892;2022-12-18T04:21:49;68.90;;;34.40;;
53650;SDS011;39552;45.776;15.892;2022-12-18T04:24:38;62.30;;;33.92;;
53650;SDS011;39552;45.776;15.892;2022-12-18T04:27:15;67.15;;;34.33;;
53650;SDS011;39552;45.776;15.892;2022-12-18T04:29:57;70.15;;;35.20;;
53650;SDS011;39552;45.776;15.892;2022-12-18T04:32:34;66.68;;;34.45;;
53650;SDS011;39552;45.776;15.892;2022-12-18T04:35:25;68.93;;;35.67;;
53650;SDS011;39552;45.776;15.892;2022-12-18T04:38:05;62.80;;;34.13;;
53650;SDS011;39552;45.776;15.892;2022-12-18T04:40:53;69.85;;;33.80;;
53650;SDS011;39552;45.776;15.892;2022-12-18T04:43:49;69.18;;;35.22;;
53650;SDS011;39552;45.776;15.892;2022-12-18T04:46:34;72.38;;;35.75;;
53650;SDS011;39552;45.776;15.892;2022-12-18T04:49:09;70.05;;;35.78;;
53650;SDS011;39552;45.776;15.892;2022-12-18T04:52:15;75.07;;;36.92;;
53650;SDS011;39552;45.776;15.892;2022-12-18T04:55:03;70.22;;;35.75;;
53650;SDS011;39552;45.776;15.892;2022-12-18T04:57:57;81.65;;;36.72;;
53650;SDS011;39552;45.776;15.892;2022-12-18T05:00:35;68.38;;;35.22;;
53650;SDS011;39552;45.776;15.892;2022-12-18T05:03:16;73.68;;;34.70;;
53650;SDS011;39552;45.776;15.892;2022-12-18T05:05:52;66.53;;;34.75;;
53650;SDS011;39552;45.776;15.892;2022-12-18T05:08:58;77.75;;;37.50;;
53650;SDS011;39552;45.776;15.892;2022-12-18T05:11:44;75.03;;;36.67;;
53650;SDS011;39552;45.776;15.892;2022-12-18T05:17:49;75.72;;;35.78;;
53650;SDS011;39552;45.776;15.892;2022-12-18T05:20:56;76.07;;;36.53;;
53650;SDS011;39552;45.776;15.892;2022-12-18T05:23:33;72.63;;;34.65;;
53650;SDS011;39552;45.776;15.892;2022-12-18T05:26:22;77.85;;;37.60;;
53650;SDS011;39552;45.776;15.892;2022-12-18T05:29:07;80.38;;;36.05;;
53650;SDS011;39552;45.776;15.892;2022-12-18T05:31:50;73.82;;;36.05;;
53650;SDS011;39552;45.776;15.892;2022-12-18T05:34:43;73.38;;;35.22;;
53650;SDS011;39552;45.776;15.892;2022-12-18T05:37:17;75.15;;;37.40;;
53650;SDS011;39552;45.776;15.892;2022-12-18T05:43:01;83.47;;;38.72;;
53650;SDS011;39552;45.776;15.892;2022-12-18T05:45:50;82.57;;;39.20;;
53650;SDS011;39552;45.776;15.892;2022-12-18T05:48:23;83.10;;;38.45;;
53650;SDS011;39552;45.776;15.892;2022-12-18T05:51:03;82.10;;;39.40;;
53650;SDS011;39552;45.776;15.892;2022-12-18T05:53:41;83.50;;;39.47;;
53650;SDS011;39552;45.776;15.892;2022-12-18T05:56:25;107.25;;;58.47;;
53650;SDS011;39552;45.776;15.892;2022-12-18T05:59:00;88.05;;;43.28;;
53650;SDS011;39552;45.776;15.892;2022-12-18T06:01:55;87.57;;;42.28;;
53650;SDS011;39552;45.776;15.892;2022-12-18T06:04:34;90.13;;;40.83;;
53650;SDS011;39552;45.776;15.892;2022-12-18T06:07:13;89.47;;;39.85;;
53650;SDS011;39552;45.776;15.892;2022-12-18T06:12:41;86.18;;;41.47;;
53650;SDS011;39552;45.776;15.892;2022-12-18T06:15:20;92.00;;;43.15;;
53650;SDS011;39552;45.776;15.892;2022-12-18T06:18:00;87.43;;;41.97;;
53650;SDS011;39552;45.776;15.892;2022-12-18T06:20:44;93.28;;;42.97;;
53650;SDS011;39552;45.776;15.892;2022-12-18T06:23:31;92.20;;;43.00;;
53650;SDS011;39552;45.776;15.892;2022-12-18T06:26:09;89.25;;;43.22;;
53650;SDS011;39552;45.776;15.892;2022-12-18T06:28:42;95.05;;;43.95;;
53650;SDS011;39552;45.776;15.892;2022-12-18T06:31:42;91.93;;;44.33;;
53650;SDS011;39552;45.776;15.892;2022-12-18T06:34:31;91.57;;;43.72;;
53650;SDS011;39552;45.776;15.892;2022-12-18T06:37:12;99.38;;;44.70;;
53650;SDS011;39552;45.776;15.892;2022-12-18T06:39:55;99.47;;;44.42;;
53650;SDS011;39552;45.776;15.892;2022-12-18T06:42:36;94.28;;;42.08;;
53650;SDS011;39552;45.776;15.892;2022-12-18T06:45:24;87.63;;;40.35;;
53650;SDS011;39552;45.776;15.892;2022-12-18T06:48:06;88.03;;;41.80;;
53650;SDS011;39552;45.776;15.892;2022-12-18T06:51:01;90.25;;;41.30;;
53650;SDS011;39552;45.776;15.892;2022-12-18T06:56:55;88.30;;;40.72;;
53650;SDS011;39552;45.776;15.892;2022-12-18T06:59:21;88.50;;;40.80;;
53650;SDS011;39552;45.776;15.892;2022-12-18T07:01:48;81.78;;;39.80;;
53650;SDS011;39552;45.776;15.892;2022-12-18T07:04:15;91.20;;;42.28;;
53650;SDS011;39552;45.776;15.892;2022-12-18T07:06:41;82.35;;;42.05;;
53650;SDS011;39552;45.776;15.892;2022-12-18T07:09:08;91.85;;;41.15;;
53650;SDS011;39552;45.776;15.892;2022-12-18T07:11:36;82.85;;;39.40;;
53650;SDS011;39552;45.776;15.892;2022-12-18T07:14:02;86.13;;;40.53;;
53650;SDS011;39552;45.776;15.892;2022-12-18T07:16:29;87.28;;;40.25;;
53650;SDS011;39552;45.776;15.892;2022-12-18T07:18:56;83.75;;;39.38;;
53650;SDS011;39552;45.776;15.892;2022-12-18T07:21:23;78.50;;;39.88;;
53650;SDS011;39552;45.776;15.892;2022-12-18T07:23:51;89.63;;;40.63;;
53650;SDS011;39552;45.776;15.892;2022-12-18T07:26:21;81.32;;;39.17;;
53650;SDS011;39552;45.776;15.892;2022-12-18T07:28:55;87.40;;;40.75;;
53650;SDS011;39552;45.776;15.892;2022-12-18T07:31:23;82.90;;;39.00;;
53650;SDS011;39552;45.776;15.892;2022-12-18T07:33:51;87.50;;;39.17;;
53650;SDS011;39552;45.776;15.892;2022-12-18T07:36:18;85.78;;;40.30;;
53650;SDS011;39552;45.776;15.892;2022-12-18T07:38:46;89.78;;;38.67;;
53650;SDS011;39552;45.776;15.892;2022-12-18T07:41:13;87.28;;;39.08;;
53650;SDS011;39552;45.776;15.892;2022-12-18T07:43:40;82.22;;;39.58;;
53650;SDS011;39552;45.776;15.892;2022-12-18T07:46:10;83.95;;;39.63;;
53650;SDS011;39552;45.776;15.892;2022-12-18T07:48:38;83.80;;;38.80;;
53650;SDS011;39552;45.776;15.892;2022-12-18T07:51:05;87.78;;;40.10;;
53650;SDS011;39552;45.776;15.892;2022-12-18T07:53:34;85.43;;;40.20;;
53650;SDS011;39552;45.776;15.892;2022-12-18T07:56:03;86.97;;;40.95;;
53650;SDS011;39552;45.776;15.892;2022-12-18T07:58:52;81.75;;;37.83;;
53650;SDS011;39552;45.776;15.892;2022-12-18T08:01:20;82.97;;;38.90;;
53650;SDS011;39552;45.776;15.892;2022-12-18T08:03:47;71.55;;;35.50;;
53650;SDS011;39552;45.776;15.892;2022-12-18T08:06:17;74.28;;;34.40;;
53650;SDS011;39552;45.776;15.892;2022-12-18T08:08:50;72.35;;;33.33;;
53650;SDS011;39552;45.776;15.892;2022-12-18T08:11:17;71.40;;;35.38;;
53650;SDS011;39552;45.776;15.892;2022-12-18T08:13:45;76.38;;;36.10;;
53650;SDS011;39552;45.776;15.892;2022-12-18T08:16:11;74.55;;;35.38;;
53650;SDS011;39552;45.776;15.892;2022-12-18T08:18:39;74.72;;;36.58;;
53650;SDS011;39552;45.776;15.892;2022-12-18T08:21:09;70.70;;;36.35;;
53650;SDS011;39552;45.776;15.892;2022-12-18T08:23:36;78.72;;;35.80;;
53650;SDS011;39552;45.776;15.892;2022-12-18T08:26:08;86.50;;;39.95;;
53650;SDS011;39552;45.776;15.892;2022-12-18T08:28:35;82.25;;;36.22;;
53650;SDS011;39552;45.776;15.892;2022-12-18T08:31:02;80.03;;;37.50;;
53650;SDS011;39552;45.776;15.892;2022-12-18T08:33:29;75.63;;;37.25;;
53650;SDS011;39552;45.776;15.892;2022-12-18T08:35:57;75.72;;;37.70;;
53650;SDS011;39552;45.776;15.892;2022-12-18T08:41:12;76.55;;;37.03;;
53650;SDS011;39552;45.776;15.892;2022-12-18T08:46:39;82.10;;;37.80;;
53650;SDS011;39552;45.776;15.892;2022-12-18T08:49:29;80.38;;;37.70;;
53650;SDS011;39552;45.776;15.892;2022-12-18T08:52:16;83.28;;;37.83;;
53650;SDS011;39552;45.776;15.892;2022-12-18T08:55:00;80.82;;;37.38;;
53650;SDS011;39552;45.776;15.892;2022-12-18T08:57:26;80.03;;;36.75;;
53650;SDS011;39552;45.776;15.892;2022-12-18T08:59:53;74.40;;;36.03;;
53650;SDS011;39552;45.776;15.892;2022-12-18T09:02:20;78.47;;;36.45;;
53650;SDS011;39552;45.776;15.892;2022-12-18T09:04:53;72.65;;;35.97;;
53650;SDS011;39552;45.776;15.892;2022-12-18T09:07:24;75.43;;;35.28;;
53650;SDS011;39552;45.776;15.892;2022-12-18T09:10:01;78.88;;;35.67;;
53650;SDS011;39552;45.776;15.892;2022-12-18T09:12:27;69.72;;;34.97;;
53650;SDS011;39552;45.776;15.892;2022-12-18T09:15:03;69.57;;;34.92;;
53650;SDS011;39552;45.776;15.892;2022-12-18T09:17:31;70.80;;;34.70;;
53650;SDS011;39552;45.776;15.892;2022-12-18T09:20:07;67.05;;;32.90;;
53650;SDS011;39552;45.776;15.892;2022-12-18T09:22:36;72.93;;;35.72;;
53650;SDS011;39552;45.776;15.892;2022-12-18T09:25:03;80.03;;;38.22;;
53650;SDS011;39552;45.776;15.892;2022-12-18T09:27:31;76.97;;;36.75;;
53650;SDS011;39552;45.776;15.892;2022-12-18T09:30:11;81.78;;;38.92;;
53650;SDS011;39552;45.776;15.892;2022-12-18T09:32:42;83.18;;;39.85;;
53650;SDS011;39552;45.776;15.892;2022-12-18T09:38:53;81.70;;;38.63;;
53650;SDS011;39552;45.776;15.892;2022-12-18T09:41:50;80.40;;;38.15;;
53650;SDS011;39552;45.776;15.892;2022-12-18T09:44:24;76.57;;;36.10;;
53650;SDS011;39552;45.776;15.892;2022-12-18T09:47:04;77.32;;;37.08;;
53650;SDS011;39552;45.776;15.892;2022-12-18T09:49:37;70.63;;;35.42;;
53650;SDS011;39552;45.776;15.892;2022-12-18T09:52:09;76.13;;;36.40;;
53650;SDS011;39552;45.776;15.892;2022-12-18T09:54:44;81.20;;;37.28;;
53650;SDS011;39552;45.776;15.892;2022-12-18T09:57:15;78.07;;;37.95;;
53650;SDS011;39552;45.776;15.892;2022-12-18T09:59:46;80.43;;;38.03;;
53650;SDS011;39552;45.776;15.892;2022-12-18T10:02:18;77.78;;;37.78;;
53650;SDS011;39552;45.776;15.892;2022-12-18T10:04:48;75.55;;;36.38;;
53650;SDS011;39552;45.776;15.892;2022-12-18T10:07:24;78.53;;;37.85;;
53650;SDS011;39552;45.776;15.892;2022-12-18T10:10:02;73.28;;;35.25;;
53650;SDS011;39552;45.776;15.892;2022-12-18T10:12:34;69.68;;;34.55;;
53650;SDS011;39552;45.776;15.892;2022-12-18T10:15:13;72.72;;;35.55;;
53650;SDS011;39552;45.776;15.892;2022-12-18T10:17:47;73.50;;;36.35;;
53650;SDS011;39552;45.776;15.892;2022-12-18T10:20:23;74.18;;;35.35;;
53650;SDS011;39552;45.776;15.892;2022-12-18T10:22:55;66.55;;;33.00;;
53650;SDS011;39552;45.776;15.892;2022-12-18T10:25:32;70.55;;;33.45;;
53650;SDS011;39552;45.776;15.892;2022-12-18T10:28:07;70.07;;;33.30;;
53650;SDS011;39552;45.776;15.892;2022-12-18T10:30:38;67.88;;;33.17;;
53650;SDS011;39552;45.776;15.892;2022-12-18T10:33:08;65.00;;;30.90;;
53650;SDS011;39552;45.776;15.892;2022-12-18T10:35:38;67.68;;;32.05;;
53650;SDS011;39552;45.776;15.892;2022-12-18T10:40:49;61.40;;;27.90;;
53650;SDS011;39552;45.776;15.892;2022-12-18T10:43:22;50.25;;;25.63;;
53650;SDS011;39552;45.776;15.892;2022-12-18T10:48:53;56.88;;;26.25;;
53650;SDS011;39552;45.776;15.892;2022-12-18T10:51:22;53.58;;;26.10;;
53650;SDS011;39552;45.776;15.892;2022-12-18T10:53:51;48.47;;;24.85;;
53650;SDS011;39552;45.776;15.892;2022-12-18T10:56:23;44.33;;;23.17;;
53650;SDS011;39552;45.776;15.892;2022-12-18T11:01:21;47.33;;;22.92;;
53650;SDS011;39552;45.776;15.892;2022-12-18T11:03:58;44.75;;;22.98;;
53650;SDS011;39552;45.776;15.892;2022-12-18T11:08:59;45.70;;;22.10;;
53650;SDS011;39552;45.776;15.892;2022-12-18T11:11:28;40.72;;;22.38;;
53650;SDS011;39552;45.776;15.892;2022-12-18T11:13:58;45.15;;;20.85;;
53650;SDS011;39552;45.776;15.892;2022-12-18T11:16:29;39.95;;;21.90;;
53650;SDS011;39552;45.776;15.892;2022-12-18T11:21:58;46.75;;;22.83;;
53650;SDS011;39552;45.776;15.892;2022-12-18T11:24:30;45.38;;;22.00;;
53650;SDS011;39552;45.776;15.892;2022-12-18T11:27:33;46.42;;;21.75;;
53650;SDS011;39552;45.776;15.892;2022-12-18T11:30:08;45.60;;;20.98;;
53650;SDS011;39552;45.776;15.892;2022-12-18T11:33:12;46.50;;;21.75;;
53650;SDS011;39552;45.776;15.892;2022-12-18T11:35:38;40.55;;;20.42;;
53650;SDS011;39552;45.776;15.892;2022-12-18T11:38:12;42.58;;;21.13;;
53650;SDS011;39552;45.776;15.892;2022-12-18T11:40:56;41.70;;;21.27;;
53650;SDS011;39552;45.776;15.892;2022-12-18T11:43:28;41.47;;;21.27;;
53650;SDS011;39552;45.776;15.892;2022-12-18T11:46:17;39.45;;;21.20;;
53650;SDS011;39552;45.776;15.892;2022-12-18T11:48:56;41.53;;;20.70;;
53650;SDS011;39552;45.776;15.892;2022-12-18T11:51:41;41.20;;;20.80;;
53650;SDS011;39552;45.776;15.892;2022-12-18T11:54:18;41.10;;;21.05;;
53650;SDS011;39552;45.776;15.892;2022-12-18T11:56:50;38.38;;;20.90;;
53650;SDS011;39552;45.776;15.892;2022-12-18T11:59:27;43.42;;;20.42;;
53650;SDS011;39552;45.776;15.892;2022-12-18T12:02:09;42.30;;;22.17;;
53650;SDS011;39552;45.776;15.892;2022-12-18T12:05:04;40.33;;;21.77;;
53650;SDS011;39552;45.776;15.892;2022-12-18T12:07:52;81.88;;;40.63;;
53650;SDS011;39552;45.776;15.892;2022-12-18T12:10:38;90.10;;;43.22;;
53650;SDS011;39552;45.776;15.892;2022-12-18T12:13:22;92.03;;;43.30;;
53650;SDS011;39552;45.776;15.892;2022-12-18T12:16:07;89.28;;;42.65;;
53650;SDS011;39552;45.776;15.892;2022-12-18T12:18:51;92.45;;;43.08;;
53650;SDS011;39552;45.776;15.892;2022-12-18T12:21:44;85.80;;;42.05;;
53650;SDS011;39552;45.776;15.892;2022-12-18T12:24:25;97.20;;;46.05;;
53650;SDS011;39552;45.776;15.892;2022-12-18T12:27:17;92.07;;;45.47;;
53650;SDS011;39552;45.776;15.892;2022-12-18T12:30:07;87.80;;;43.22;;
53650;SDS011;39552;45.776;15.892;2022-12-18T12:35:45;86.30;;;43.83;;
53650;SDS011;39552;45.776;15.892;2022-12-18T12:38:30;95.10;;;45.22;;
53650;SDS011;39552;45.776;15.892;2022-12-18T12:41:05;85.22;;;41.28;;
53650;SDS011;39552;45.776;15.892;2022-12-18T12:43:44;93.03;;;43.63;;
53650;SDS011;39552;45.776;15.892;2022-12-18T12:46:17;88.47;;;41.17;;
53650;SDS011;39552;45.776;15.892;2022-12-18T12:48:57;83.35;;;39.22;;
53650;SDS011;39552;45.776;15.892;2022-12-18T12:51:28;81.30;;;39.08;;
53650;SDS011;39552;45.776;15.892;2022-12-18T12:53:59;76.38;;;36.90;;
53650;SDS011;39552;45.776;15.892;2022-12-18T12:56:30;82.40;;;38.33;;
53650;SDS011;39552;45.776;15.892;2022-12-18T12:59:09;76.82;;;36.67;;
53650;SDS011;39552;45.776;15.892;2022-12-18T13:01:40;69.60;;;35.25;;
53650;SDS011;39552;45.776;15.892;2022-12-18T13:04:26;69.30;;;33.88;;
53650;SDS011;39552;45.776;15.892;2022-12-18T13:07:06;72.57;;;35.10;;
53650;SDS011;39552;45.776;15.892;2022-12-18T13:12:59;70.35;;;34.78;;
53650;SDS011;39552;45.776;15.892;2022-12-18T13:16:03;63.55;;;33.22;;
53650;SDS011;39552;45.776;15.892;2022-12-18T13:18:50;63.78;;;32.13;;
53650;SDS011;39552;45.776;15.892;2022-12-18T13:21:24;61.53;;;31.17;;
53650;SDS011;39552;45.776;15.892;2022-12-18T13:23:55;62.58;;;32.28;;
53650;SDS011;39552;45.776;15.892;2022-12-18T13:26:48;57.63;;;29.50;;
53650;SDS011;39552;45.776;15.892;2022-12-18T13:29:41;62.63;;;31.45;;
53650;SDS011;39552;45.776;15.892;2022-12-18T13:32:19;68.35;;;31.48;;
53650;SDS011;39552;45.776;15.892;2022-12-18T13:38:18;63.20;;;29.33;;
53650;SDS011;39552;45.776;15.892;2022-12-18T13:40:54;62.75;;;29.10;;
53650;SDS011;39552;45.776;15.892;2022-12-18T13:43:34;53.33;;;28.73;;
53650;SDS011;39552;45.776;15.892;2022-12-18T13:46:23;59.53;;;28.60;;
53650;SDS011;39552;45.776;15.892;2022-12-18T13:48:53;70.78;;;33.70;;
53650;SDS011;39552;45.776;15.892;2022-12-18T13:51:39;72.82;;;36.45;;
53650;SDS011;39552;45.776;15.892;2022-12-18T13:54:24;69.18;;;34.30;;
53650;SDS011;39552;45.776;15.892;2022-12-18T13:57:23;68.10;;;34.67;;
53650;SDS011;39552;45.776;15.892;2022-12-18T14:00:16;72.32;;;35.60;;
53650;SDS011;39552;45.776;15.892;2022-12-18T14:02:51;73.63;;;36.95;;
53650;SDS011;39552;45.776;15.892;2022-12-18T14:05:26;75.82;;;37.88;;
53650;SDS011;39552;45.776;15.892;2022-12-18T14:07:59;77.45;;;37.30;;
53650;SDS011;39552;45.776;15.892;2022-12-18T14:10:38;73.07;;;37.38;;
53650;SDS011;39552;45.776;15.892;2022-12-18T14:13:26;77.07;;;36.85;;
53650;SDS011;39552;45.776;15.892;2022-12-18T14:16:03;73.20;;;36.85;;
53650;SDS011;39552;45.776;15.892;2022-12-18T14:18:38;75.25;;;35.90;;
53650;SDS011;39552;45.776;15.892;2022-12-18T14:21:18;71.13;;;36.20;;
53650;SDS011;39552;45.776;15.892;2022-12-18T14:24:04;69.85;;;34.33;;
53650;SDS011;39552;45.776;15.892;2022-12-18T14:26:43;67.63;;;35.10;;
53650;SDS011;39552;45.776;15.892;2022-12-18T14:29:22;72.65;;;36.38;;
53650;SDS011;39552;45.776;15.892;2022-12-18T14:32:05;68.45;;;34.65;;
53650;SDS011;39552;45.776;15.892;2022-12-18T14:34:47;66.55;;;34.25;;
53650;SDS011;39552;45.776;15.892;2022-12-18T14:37:17;73.05;;;34.83;;
53650;SDS011;39552;45.776;15.892;2022-12-18T14:39:53;68.20;;;35.30;;
53650;SDS011;39552;45.776;15.892;2022-12-18T14:42:40;69.30;;;35.20;;
53650;SDS011;39552;45.776;15.892;2022-12-18T14:45:34;71.13;;;36.65;;
53650;SDS011;39552;45.776;15.892;2022-12-18T14:48:13;68.13;;;34.85;;
53650;SDS011;39552;45.776;15.892;2022-12-18T14:51:02;74.75;;;36.10;;
53650;SDS011;39552;45.776;15.892;2022-12-18T14:53:37;68.88;;;35.65;;
53650;SDS011;39552;45.776;15.892;2022-12-18T14:56:18;72.95;;;35.65;;
53650;SDS011;39552;45.776;15.892;2022-12-18T14:58:57;70.57;;;34.15;;
53650;SDS011;39552;45.776;15.892;2022-12-18T15:01:37;68.35;;;34.67;;
53650;SDS011;39552;45.776;15.892;2022-12-18T15:04:27;71.00;;;34.63;;
53650;SDS011;39552;45.776;15.892;2022-12-18T15:07:12;73.45;;;37.05;;
53650;SDS011;39552;45.776;15.892;2022-12-18T15:10:03;78.53;;;38.17;;
53650;SDS011;39552;45.776;15.892;2022-12-18T15:12:40;75.28;;;38.83;;
53650;SDS011;39552;45.776;15.892;2022-12-18T15:18:33;69.68;;;36.67;;
53650;SDS011;39552;45.776;15.892;2022-12-18T15:21:16;68.97;;;35.80;;
53650;SDS011;39552;45.776;15.892;2022-12-18T15:23:51;65.18;;;35.08;;
53650;SDS011;39552;45.776;15.892;2022-12-18T15:26:34;71.68;;;37.35;;
53650;SDS011;39552;45.776;15.892;2022-12-18T15:29:15;72.65;;;36.95;;
53650;SDS011;39552;45.776;15.892;2022-12-18T15:31:57;74.05;;;37.13;;
53650;SDS011;39552;45.776;15.892;2022-12-18T15:34:31;78.18;;;38.63;;
53650;SDS011;39552;45.776;15.892;2022-12-18T15:37:00;75.03;;;36.88;;
53650;SDS011;39552;45.776;15.892;2022-12-18T15:39:29;91.60;;;42.97;;
53650;SDS011;39552;45.776;15.892;2022-12-18T15:41:59;99.43;;;47.22;;
53650;SDS011;39552;45.776;15.892;2022-12-18T15:44:27;88.53;;;43.17;;
53650;SDS011;39552;45.776;15.892;2022-12-18T15:46:54;92.95;;;43.45;;
53650;SDS011;39552;45.776;15.892;2022-12-18T15:49:21;92.63;;;45.42;;
53650;SDS011;39552;45.776;15.892;2022-12-18T15:51:51;88.18;;;42.25;;
53650;SDS011;39552;45.776;15.892;2022-12-18T15:54:19;82.15;;;42.22;;
53650;SDS011;39552;45.776;15.892;2022-12-18T15:56:50;89.45;;;45.60;;
53650;SDS011;39552;45.776;15.892;2022-12-18T15:59:22;86.75;;;44.40;;
53650;SDS011;39552;45.776;15.892;2022-12-18T16:01:50;91.03;;;46.00;;
53650;SDS011;39552;45.776;15.892;2022-12-18T16:04:20;96.47;;;46.63;;
53650;SDS011;39552;45.776;15.892;2022-12-18T16:06:48;92.22;;;44.47;;
53650;SDS011;39552;45.776;15.892;2022-12-18T16:09:40;92.97;;;45.45;;
53650;SDS011;39552;45.776;15.892;2022-12-18T16:12:14;94.97;;;45.60;;
53650;SDS011;39552;45.776;15.892;2022-12-18T16:14:43;110.32;;;50.22;;
53650;SDS011;39552;45.776;15.892;2022-12-18T16:17:11;112.95;;;53.42;;
53650;SDS011;39552;45.776;15.892;2022-12-18T16:19:42;115.60;;;54.67;;
53650;SDS011;39552;45.776;15.892;2022-12-18T16:22:16;120.88;;;55.17;;
53650;SDS011;39552;45.776;15.892;2022-12-18T16:24:47;111.28;;;53.55;;